PWSweather.com
Personal Weather Stations
Station Observations
BLACKWELL
Blackwell, AlfretonGB DE55

BlackwellAlfretonGB DE55

Lat: 53.12076, Lon: -1.354978

Elevation: 410

Station Type: Vantage Pro

High Low Average
Temperature 53.1°F11.7°C 36.9°F2.7°C 44.9°F7.2°C
Dew Point 48.4°F9.1°C 35.8°F2.1°C 42.3°F5.7°C
Winds 2.0 mph 3.2 kmh Calm Calm 1.0 mph NE1.6 kmh NE
Wind Gusts 6.0 mph9.7 kmh -- 2.0 mph3.2 kmh
Humidity 98% 78% 91%
Pressure 29.37 in994.6 mb 29.19 in988.5 mb -
Precipitation 0.02 in0.5 mm - -
Hour Temp Dew Point Humidity Winds Wind Gusts Pressure Precip Precip Rate Daily Precip Total
12:11 AM 42.4°F5.8°C 40.6°F4.8°C 93% Calm Calm -- 29.37 in994.6 mb 0.00 in0.0 mm 0.00 in0.0 mm 0.00 in0.0 mm
01:11 AM 41.5°F5.3°C 40.3°F4.6°C 95% Calm Calm -- 29.36 in994.2 mb 0.00 in0.0 mm 0.00 in0.0 mm 0.00 in0.0 mm
02:11 AM 40.6°F4.8°C 39.6°F4.2°C 96% Calm Calm -- 29.36 in994.2 mb 0.00 in0.0 mm 0.00 in0.0 mm 0.00 in0.0 mm
03:11 AM 40.3°F4.6°C 39.2°F4.0°C 96% Calm Calm -- 29.35 in993.9 mb 0.00 in0.0 mm 0.00 in0.0 mm 0.00 in0.0 mm
04:11 AM 37.9°F3.3°C 36.9°F2.7°C 96% Calm Calm -- 29.34 in993.6 mb 0.00 in0.0 mm 0.00 in0.0 mm 0.00 in0.0 mm
05:11 AM 37.6°F3.1°C 36.5°F2.5°C 96% Calm Calm -- 29.33 in993.2 mb 0.00 in0.0 mm 0.00 in0.0 mm 0.00 in0.0 mm
06:11 AM 37.0°F2.8°C 36.1°F2.3°C 96% Calm Calm -- 29.33 in993.2 mb 0.00 in0.0 mm 0.00 in0.0 mm 0.00 in0.0 mm
07:11 AM 36.9°F2.7°C 35.8°F2.1°C 96% Calm Calm -- 29.32 in992.9 mb 0.00 in0.0 mm 0.00 in0.0 mm 0.00 in0.0 mm
08:11 AM 38.5°F3.6°C 37.8°F3.2°C 97% Calm Calm -- 29.33 in993.2 mb 0.00 in0.0 mm 0.00 in0.0 mm 0.00 in0.0 mm
09:11 AM 43.3°F6.3°C 42.4°F5.8°C 97% Calm Calm -- 29.32 in992.9 mb 0.00 in0.0 mm 0.00 in0.0 mm 0.00 in0.0 mm
10:11 AM 48.0°F8.9°C 47.5°F8.6°C 98% Calm Calm 2.0 mph3.2 kmh 29.30 in992.2 mb 0.00 in0.0 mm 0.00 in0.0 mm 0.00 in0.0 mm
11:11 AM 51.4°F10.8°C 47.8°F8.8°C 87% 1.0 mph ENE1.6 kmh ENE 3.0 mph4.8 kmh 29.29 in991.9 mb 0.00 in0.0 mm 0.00 in0.0 mm 0.00 in0.0 mm
12:11 PM 52.0°F11.1°C 47.3°F8.5°C 84% 2.0 mph ENE3.2 kmh ENE 3.0 mph4.8 kmh 29.28 in991.5 mb 0.00 in0.0 mm 0.00 in0.0 mm 0.00 in0.0 mm
01:11 PM 53.1°F11.7°C 48.4°F9.1°C 84% 2.0 mph NE3.2 kmh NE 5.0 mph8.0 kmh 29.25 in990.5 mb 0.00 in0.0 mm 0.00 in0.0 mm 0.00 in0.0 mm
02:11 PM 52.5°F11.4°C 47.8°F8.8°C 84% 2.0 mph ENE3.2 kmh ENE 6.0 mph9.7 kmh 29.24 in990.2 mb 0.00 in0.0 mm 0.00 in0.0 mm 0.00 in0.0 mm
03:11 PM 51.4°F10.8°C 46.2°F7.9°C 82% 2.0 mph ENE3.2 kmh ENE 4.0 mph6.4 kmh 29.23 in989.8 mb 0.00 in0.0 mm 0.00 in0.0 mm 0.00 in0.0 mm
04:11 PM 51.4°F10.8°C 44.8°F7.1°C 78% 2.0 mph ENE3.2 kmh ENE 4.0 mph6.4 kmh 29.22 in989.5 mb 0.00 in0.0 mm 0.00 in0.0 mm 0.00 in0.0 mm
05:11 PM 49.3°F9.6°C 44.6°F7.0°C 84% 2.0 mph ENE3.2 kmh ENE 5.0 mph8.0 kmh 29.22 in989.5 mb 0.00 in0.0 mm 0.00 in0.0 mm 0.00 in0.0 mm
06:11 PM 47.8°F8.8°C 43.5°F6.4°C 85% 1.0 mph ENE1.6 kmh ENE 4.0 mph6.4 kmh 29.22 in989.5 mb 0.00 in0.0 mm 0.00 in0.0 mm 0.00 in0.0 mm
07:11 PM 46.9°F8.3°C 43.2°F6.2°C 87% 1.0 mph NE1.6 kmh NE 5.0 mph8.0 kmh 29.22 in989.5 mb 0.00 in0.0 mm 0.00 in0.0 mm 0.00 in0.0 mm
08:11 PM 44.6°F7.0°C 42.6°F5.9°C 93% 2.0 mph NE3.2 kmh NE 5.0 mph8.0 kmh 29.21 in989.2 mb 0.02 in0.5 mm 0.00 in0.0 mm 0.02 in0.5 mm
09:11 PM 44.4°F6.9°C 42.6°F5.9°C 93% 1.0 mph ENE1.6 kmh ENE 4.0 mph6.4 kmh 29.21 in989.2 mb 0.00 in0.0 mm 0.00 in0.0 mm 0.02 in0.5 mm
10:11 PM 44.6°F7.0°C 42.4°F5.8°C 92% 1.0 mph ENE1.6 kmh ENE 4.0 mph6.4 kmh 29.20 in988.8 mb 0.00 in0.0 mm 0.00 in0.0 mm 0.02 in0.5 mm
11:11 PM 44.2°F6.8°C 42.1°F5.6°C 92% 2.0 mph ENE3.2 kmh ENE 5.0 mph8.0 kmh 29.19 in988.5 mb 0.00 in0.0 mm 0.00 in0.0 mm 0.02 in0.5 mm